Time;durP1;ratioP1;P1;durP2;ratioP2;P2;SDS_P1;SDS_P2;PMS_P1;PMS_P2;Temp;Humidity;BMP_temperature;BMP_pressure;BME280_temperature;BME280_humidity;BME280_pressure;Samples;Min_cycle;Max_cycle;Signal;HPM_P1;HPM_P2
2023/08/16 00:00:06;;;;;;;5.75;2.72;;;14.70;99.90;;;;;;4955648;29;20043;-90
2023/08/16 00:02:33;;;;;;;7.15;2.90;;;14.70;99.90;;;;;;4939533;29;20040;-90
2023/08/16 00:05:00;;;;;;;7.95;3.35;;;14.70;99.90;;;;;;4939415;29;20043;-90
2023/08/16 00:07:27;;;;;;;7.28;3.08;;;14.60;99.90;;;;;;4939227;29;20111;-89
2023/08/16 00:09:53;;;;;;;8.23;3.60;;;14.60;99.90;;;;;;4939445;29;20126;-89
2023/08/16 00:12:20;;;;;;;8.95;3.40;;;14.60;99.90;;;;;;4939764;29;20069;-89
2023/08/16 00:14:47;;;;;;;9.63;4.28;;;14.60;99.90;;;;;;4939494;29;20046;-89
2023/08/16 00:17:14;;;;;;;7.25;3.67;;;14.60;99.90;;;;;;4939244;29;20419;-90
2023/08/16 00:19:43;;;;;;;7.95;3.95;;;14.60;99.90;;;;;;4939060;29;20070;-90
2023/08/16 00:22:10;;;;;;;7.70;3.92;;;14.50;99.90;;;;;;4939211;29;20394;-90
2023/08/16 00:24:36;;;;;;;6.53;3.22;;;14.50;99.90;;;;;;4938833;29;20094;-89
2023/08/16 00:27:03;;;;;;;8.88;3.45;;;14.50;99.90;;;;;;4939398;29;20047;-89
2023/08/16 00:29:30;;;;;;;6.55;3.60;;;14.50;99.90;;;;;;4938806;29;20105;-90
2023/08/16 00:31:57;;;;;;;7.75;3.83;;;14.50;99.90;;;;;;4939688;29;20485;-90
2023/08/16 00:34:24;;;;;;;7.35;3.47;;;14.40;99.90;;;;;;4939117;29;20113;-90
2023/08/16 00:36:51;;;;;;;6.45;3.53;;;14.40;99.90;;;;;;4939208;29;20044;-89
2023/08/16 00:39:17;;;;;;;7.63;3.85;;;14.30;99.90;;;;;;4938658;29;20040;-89
2023/08/16 00:41:44;;;;;;;8.73;4.07;;;14.30;99.90;;;;;;4939266;29;20134;-90
2023/08/16 00:44:11;;;;;;;10.57;4.35;;;14.30;99.90;;;;;;4938843;29;20048;-91
2023/08/16 00:46:37;;;;;;;6.72;4.35;;;14.30;99.90;;;;;;4938563;29;20039;-90
2023/08/16 00:49:04;;;;;;;9.85;5.50;;;14.40;99.90;;;;;;4938914;29;20134;-89
2023/08/16 00:51:31;;;;;;;9.50;5.25;;;14.40;99.90;;;;;;4953934;29;20036;-90
2023/08/16 00:53:58;;;;;;;10.07;5.03;;;14.40;99.90;;;;;;4938659;29;20040;-90
2023/08/16 00:56:25;;;;;;;12.55;5.50;;;14.50;99.90;;;;;;4937899;29;20107;-89
2023/08/16 00:58:52;;;;;;;8.50;5.32;;;14.50;99.90;;;;;;4938436;29;20088;-89
2023/08/16 01:01:19;;;;;;;10.55;5.10;;;14.50;99.90;;;;;;4938381;29;20126;-90
2023/08/16 01:03:49;;;;;;;9.95;5.22;;;14.50;99.90;;;;;;4953686;29;20054;-89
2023/08/16 01:06:16;;;;;;;8.25;5.32;;;14.50;99.90;;;;;;4938058;29;20126;-89
2023/08/16 01:08:42;;;;;;;12.20;5.93;;;14.50;99.90;;;;;;4937902;29;20126;-90
2023/08/16 01:11:38;;;;;;;8.93;5.32;;;14.60;99.90;;;;;;4938492;29;20061;-90
2023/08/16 01:14:50;;;;;;;8.93;5.60;;;14.60;99.90;;;;;;4953963;29;20103;-89
2023/08/16 01:17:20;;;;;;;10.57;5.53;;;14.60;99.90;;;;;;4899925;29;20052;-89
2023/08/16 01:19:47;;;;;;;8.10;5.07;;;14.60;99.90;;;;;;4931037;29;20070;-90
2023/08/16 01:22:30;;;;;;;9.05;5.90;;;14.60;99.90;;;;;;4937980;29;20051;-90
2023/08/16 01:25:27;;;;;;;10.15;5.53;;;14.50;99.90;;;;;;4937858;29;20047;-89
2023/08/16 01:27:55;;;;;;;10.35;5.38;;;14.50;99.90;;;;;;4937786;29;20035;-90
2023/08/16 01:30:22;;;;;;;12.05;5.05;;;14.50;99.90;;;;;;4937836;29;20047;-89
2023/08/16 01:32:49;;;;;;;7.60;4.57;;;14.50;99.90;;;;;;4953651;29;20047;-90
2023/08/16 01:35:15;;;;;;;7.75;5.25;;;14.40;99.90;;;;;;4937650;29;20044;-89
2023/08/16 01:37:43;;;;;;;9.10;5.10;;;14.40;99.90;;;;;;4937618;29;20098;-90
2023/08/16 01:40:10;;;;;;;9.43;4.60;;;14.30;99.90;;;;;;4937606;29;20046;-90
2023/08/16 01:42:43;;;;;;;10.90;4.28;;;14.30;99.90;;;;;;4937469;29;20448;-90
2023/08/16 01:45:11;;;;;;;6.47;4.85;;;14.30;99.90;;;;;;4953577;29;20228;-90
2023/08/16 01:47:38;;;;;;;10.45;4.90;;;14.30;99.90;;;;;;4936936;29;20130;-89
2023/08/16 01:50:06;;;;;;;7.45;4.38;;;14.20;99.90;;;;;;4937991;29;20563;-89
2023/08/16 01:52:34;;;;;;;8.90;4.28;;;14.20;99.90;;;;;;4937156;29;20036;-89
2023/08/16 01:55:01;;;;;;;9.43;4.80;;;14.20;99.90;;;;;;4937525;29;20087;-89
2023/08/16 01:57:28;;;;;;;8.85;5.03;;;14.20;99.90;;;;;;4952991;29;20408;-89
2023/08/16 01:59:55;;;;;;;9.90;5.20;;;14.20;99.90;;;;;;4937543;29;20111;-89
2023/08/16 02:02:24;;;;;;;8.20;4.85;;;14.10;99.90;;;;;;4937316;29;20083;-89
2023/08/16 02:04:50;;;;;;;7.90;5.00;;;14.20;99.90;;;;;;4936561;29;20091;-89
2023/08/16 02:07:17;;;;;;;10.45;4.63;;;14.10;99.90;;;;;;4937501;29;20048;-88
2023/08/16 02:09:44;;;;;;;7.50;4.97;;;14.10;99.90;;;;;;4937003;29;20282;-89
2023/08/16 02:12:10;;;;;;;10.40;5.85;;;14.10;99.90;;;;;;4937029;29;20047;-89
2023/08/16 02:14:37;;;;;;;9.95;5.20;;;14.10;99.90;;;;;;4952564;29;20043;-89
2023/08/16 02:17:04;;;;;;;7.80;5.10;;;14.10;99.90;;;;;;4937282;29;20598;-89
2023/08/16 02:19:31;;;;;;;7.90;5.18;;;14.00;99.90;;;;;;4936881;29;20086;-89
2023/08/16 02:21:57;;;;;;;8.48;5.43;;;14.00;99.90;;;;;;4937326;29;20055;-89
2023/08/16 02:24:24;;;;;;;9.18;5.30;;;14.00;99.90;;;;;;4952640;29;20059;-90
2023/08/16 02:26:51;;;;;;;10.80;5.68;;;14.00;99.90;;;;;;4937089;29;20050;-89
2023/08/16 02:29:17;;;;;;;9.35;5.82;;;14.00;99.90;;;;;;4937062;29;20055;-89
2023/08/16 02:31:44;;;;;;;8.75;5.30;;;13.90;99.90;;;;;;4936749;29;20048;-89
2023/08/16 02:34:11;;;;;;;10.02;5.28;;;13.90;99.90;;;;;;4937079;29;20056;-89
2023/08/16 02:36:37;;;;;;;10.13;5.28;;;13.90;99.90;;;;;;4936605;29;20047;-89
2023/08/16 02:39:06;;;;;;;11.07;5.72;;;13.90;99.90;;;;;;4936844;29;20090;-89
2023/08/16 02:41:32;;;;;;;9.48;5.78;;;13.80;99.90;;;;;;4952346;29;20047;-88
2023/08/16 02:43:59;;;;;;;11.48;5.75;;;13.80;99.90;;;;;;4936627;29;20096;-89
2023/08/16 02:46:26;;;;;;;7.38;5.10;;;13.80;99.90;;;;;;4937082;29;20449;-89
2023/08/16 02:48:52;;;;;;;10.02;5.32;;;13.80;99.90;;;;;;4936614;29;20082;-89
2023/08/16 02:51:19;;;;;;;9.50;5.72;;;13.80;99.90;;;;;;4937152;29;20043;-89
2023/08/16 02:53:46;;;;;;;15.55;5.53;;;13.80;99.90;;;;;;4936087;29;20039;-89
2023/08/16 02:56:13;;;;;;;9.50;5.70;;;13.80;99.90;;;;;;4952585;29;20050;-89
2023/08/16 02:58:40;;;;;;;7.57;5.32;;;13.80;99.90;;;;;;4936402;29;20375;-89
2023/08/16 03:01:07;;;;;;;8.23;5.47;;;13.70;99.90;;;;;;4938749;29;20047;-89
2023/08/16 03:03:36;;;;;;;8.75;6.07;;;13.70;99.90;;;;;;4939894;29;20054;-87
2023/08/16 03:06:03;;;;;;;9.88;5.05;;;13.70;99.90;;;;;;4940406;29;20509;-88
2023/08/16 03:08:30;;;;;;;7.65;5.22;;;13.60;99.90;;;;;;4940103;29;20083;-89
2023/08/16 03:10:57;;;;;;;8.75;5.40;;;13.60;99.90;;;;;;4939929;29;20036;-88
2023/08/16 03:13:23;;;;;;;10.40;5.65;;;13.60;99.90;;;;;;4940300;29;20043;-89
2023/08/16 03:15:50;;;;;;;11.77;5.50;;;13.60;99.90;;;;;;4955814;29;20416;-89
2023/08/16 03:18:17;;;;;;;8.77;5.38;;;13.60;99.90;;;;;;4939686;29;20051;-88
2023/08/16 03:20:44;;;;;;;10.30;5.32;;;13.60;99.90;;;;;;4939483;29;20048;-87
2023/08/16 03:23:11;;;;;;;10.50;6.05;;;13.40;99.90;;;;;;4939811;29;20054;-88
2023/08/16 03:25:37;;;;;;;8.27;5.43;;;13.60;99.90;;;;;;4939892;29;20043;-88
2023/08/16 03:28:04;;;;;;;11.05;6.03;;;13.60;99.90;;;;;;4955558;29;20479;-88
2023/08/16 03:30:31;;;;;;;10.27;5.18;;;13.60;99.90;;;;;;4940215;29;20107;-89
2023/08/16 03:32:58;;;;;;;12.60;6.00;;;13.60;99.90;;;;;;4939678;29;20040;-88
2023/08/16 03:35:25;;;;;;;10.60;6.70;;;13.60;99.90;;;;;;4939947;29;20044;-89
2023/08/16 03:37:51;;;;;;;11.07;6.13;;;13.60;99.90;;;;;;4955451;29;20453;-88
2023/08/16 03:40:18;;;;;;;8.95;5.80;;;13.70;99.90;;;;;;4939634;29;20035;-88
2023/08/16 03:42:45;;;;;;;14.30;6.55;;;13.60;99.90;;;;;;4939650;29;20103;-88
2023/08/16 03:45:12;;;;;;;8.85;5.68;;;13.60;99.90;;;;;;4955636;29;20086;-88
2023/08/16 03:47:38;;;;;;;8.95;5.20;;;13.60;99.90;;;;;;4939217;29;20055;-87
2023/08/16 03:50:05;;;;;;;8.93;5.93;;;13.60;99.90;;;;;;4939451;29;20071;-88
2023/08/16 03:52:32;;;;;;;11.50;5.53;;;13.60;99.90;;;;;;4939753;29;20040;-89
2023/08/16 03:54:59;;;;;;;9.27;5.30;;;13.60;99.90;;;;;;4939274;29;20215;-88
2023/08/16 03:57:25;;;;;;;9.90;5.50;;;13.50;99.90;;;;;;4939074;29;20052;-89
2023/08/16 03:59:52;;;;;;;8.27;5.78;;;13.50;99.90;;;;;;4939011;29;20044;-88
2023/08/16 04:02:20;;;;;;;11.93;5.88;;;13.50;99.90;;;;;;4939549;29;20051;-88
2023/08/16 04:04:51;;;;;;;8.90;5.90;;;13.50;99.90;;;;;;4954469;29;20040;-89
2023/08/16 04:07:18;;;;;;;7.90;5.70;;;13.50;99.90;;;;;;4955141;29;20065;-89
2023/08/16 04:09:44;;;;;;;10.60;5.47;;;13.50;99.90;;;;;;4938871;29;20055;-89
2023/08/16 04:12:11;;;;;;;8.80;5.38;;;13.50;99.90;;;;;;4939282;29;20378;-89
2023/08/16 04:14:38;;;;;;;8.20;4.90;;;13.50;99.90;;;;;;4939448;29;20103;-89
2023/08/16 04:17:04;;;;;;;10.60;5.22;;;13.50;99.90;;;;;;4938924;29;20090;-89
2023/08/16 04:19:32;;;;;;;10.30;5.22;;;13.50;99.90;;;;;;4954746;29;20059;-89
2023/08/16 04:21:58;;;;;;;7.97;5.13;;;13.50;99.90;;;;;;4939242;29;20493;-89
2023/08/16 04:24:25;;;;;;;11.23;5.60;;;13.50;99.90;;;;;;4939302;29;20043;-89
2023/08/16 04:26:52;;;;;;;11.02;6.07;;;13.50;99.90;;;;;;4939351;29;20043;-89
2023/08/16 04:29:19;;;;;;;10.13;5.50;;;13.40;99.90;;;;;;4939444;29;20047;-89
2023/08/16 04:31:46;;;;;;;9.52;5.47;;;13.40;99.90;;;;;;4955038;29;20122;-88
2023/08/16 04:34:13;;;;;;;7.97;5.18;;;13.40;99.90;;;;;;4938981;29;20051;-88
2023/08/16 04:36:39;;;;;;;9.70;5.15;;;13.50;99.90;;;;;;4954667;29;20043;-88
2023/08/16 04:39:07;;;;;;;10.63;5.35;;;13.50;99.90;;;;;;4938608;29;20425;-89
2023/08/16 04:41:34;;;;;;;9.10;5.35;;;13.50;99.90;;;;;;4954866;29;20567;-89
2023/08/16 04:44:01;;;;;;;10.98;5.28;;;13.50;99.90;;;;;;4938561;29;20094;-88
2023/08/16 04:46:28;;;;;;;7.22;5.53;;;13.50;99.90;;;;;;4939020;29;20170;-89
2023/08/16 04:48:54;;;;;;;9.40;6.20;;;13.50;99.90;;;;;;4938488;29;20131;-89
2023/08/16 04:51:21;;;;;;;7.70;5.30;;;13.50;99.90;;;;;;4938953;29;20563;-88
2023/08/16 04:53:48;;;;;;;11.55;5.78;;;13.50;99.90;;;;;;4938114;29;20137;-88
2023/08/16 04:56:15;;;;;;;10.60;5.45;;;13.40;99.90;;;;;;4938601;29;20051;-89
2023/08/16 04:58:41;;;;;;;7.55;5.60;;;13.60;99.90;;;;;;4954249;29;20485;-88
2023/08/16 05:01:09;;;;;;;9.98;5.55;;;13.60;99.90;;;;;;4953878;29;20043;-88
2023/08/16 05:03:36;;;;;;;9.38;5.18;;;13.60;99.90;;;;;;4938312;29;20059;-89
2023/08/16 05:06:04;;;;;;;10.70;5.47;;;13.60;99.90;;;;;;4938534;29;20437;-89
2023/08/16 05:08:31;;;;;;;9.45;5.18;;;13.70;99.90;;;;;;4953563;29;20047;-89
2023/08/16 05:10:58;;;;;;;11.13;6.10;;;13.70;99.90;;;;;;4938177;29;20095;-88
2023/08/16 05:13:27;;;;;;;9.77;5.38;;;13.70;99.90;;;;;;4938097;29;20054;-88
2023/08/16 05:15:54;;;;;;;9.45;5.85;;;13.80;99.90;;;;;;4938090;29;20048;-88
2023/08/16 05:18:20;;;;;;;12.38;6.10;;;13.80;99.90;;;;;;4938092;29;20166;-88
2023/08/16 05:20:47;;;;;;;9.02;5.97;;;13.80;99.90;;;;;;4938150;29;20130;-88
2023/08/16 05:23:14;;;;;;;12.13;6.30;;;13.90;99.90;;;;;;4936811;29;20134;-89
2023/08/16 05:25:41;;;;;;;11.10;6.07;;;14.00;99.90;;;;;;4937542;29;20044;-88
2023/08/16 05:28:07;;;;;;;9.32;5.80;;;14.00;99.90;;;;;;4937488;29;20040;-89
2023/08/16 05:30:34;;;;;;;9.50;5.93;;;14.00;99.90;;;;;;4937955;29;20128;-89
2023/08/16 05:33:01;;;;;;;9.73;5.97;;;14.10;99.90;;;;;;4937475;29;20047;-88
2023/08/16 05:35:27;;;;;;;10.15;6.28;;;14.20;99.90;;;;;;4937811;29;20078;-88
2023/08/16 05:37:54;;;;;;;10.25;6.78;;;14.20;99.90;;;;;;4953459;29;20046;-88
2023/08/16 05:40:21;;;;;;;10.77;6.30;;;14.30;99.90;;;;;;4937613;29;20043;-88
2023/08/16 05:42:48;;;;;;;10.55;6.50;;;14.30;99.90;;;;;;4937616;29;20480;-88
2023/08/16 05:45:14;;;;;;;10.05;6.45;;;14.40;99.90;;;;;;4937110;29;20052;-89
2023/08/16 05:47:42;;;;;;;11.20;6.47;;;14.50;99.90;;;;;;4937429;29;20051;-89
2023/08/16 05:50:09;;;;;;;10.57;6.60;;;14.60;99.90;;;;;;4953124;29;20151;-88
2023/08/16 05:52:38;;;;;;;11.27;6.85;;;14.60;99.90;;;;;;4937756;29;20040;-88
2023/08/16 05:55:05;;;;;;;12.38;6.75;;;14.70;99.90;;;;;;4937139;29;20047;-88
2023/08/16 05:57:32;;;;;;;12.75;6.93;;;14.80;99.90;;;;;;4953071;29;20520;-89
2023/08/16 05:59:59;;;;;;;12.02;7.10;;;14.90;99.90;;;;;;4936897;29;20050;-89
2023/08/16 06:02:26;;;;;;;8.73;5.85;;;15.00;99.90;;;;;;4952832;29;20540;-89
2023/08/16 06:04:53;;;;;;;19.80;7.10;;;15.00;99.90;;;;;;4952748;29;20047;-88
2023/08/16 06:07:21;;;;;;;9.15;6.47;;;15.10;99.90;;;;;;4937059;29;20050;-88
2023/08/16 06:09:50;;;;;;;11.07;6.25;;;15.20;99.90;;;;;;4937282;29;20086;-89
2023/08/16 06:12:17;;;;;;;11.32;6.63;;;15.20;99.90;;;;;;4937136;29;20043;-88
2023/08/16 06:14:44;;;;;;;9.73;6.30;;;15.30;99.90;;;;;;4937588;29;20047;-89
2023/08/16 06:17:11;;;;;;;14.10;6.80;;;15.40;99.90;;;;;;4936936;29;20048;-89
2023/08/16 06:19:37;;;;;;;12.77;7.00;;;15.50;99.90;;;;;;4937107;29;20059;-89
2023/08/16 06:22:04;;;;;;;12.20;6.60;;;15.60;99.90;;;;;;4936774;29;20639;-88
2023/08/16 06:24:34;;;;;;;12.68;6.22;;;15.80;99.90;;;;;;4937107;29;20497;-88
2023/08/16 06:27:00;;;;;;;12.88;5.97;;;15.90;99.90;;;;;;4952638;29;20050;-88
2023/08/16 06:29:27;;;;;;;10.63;6.40;;;16.00;99.90;;;;;;4952669;29;20044;-88
2023/08/16 06:31:55;;;;;;;11.90;5.90;;;16.10;99.90;;;;;;4952542;29;20036;-88
2023/08/16 06:34:22;;;;;;;9.48;5.40;;;16.20;99.90;;;;;;4936631;29;20070;-89
2023/08/16 06:36:49;;;;;;;13.50;5.18;;;16.30;99.90;;;;;;4936793;29;20131;-89
2023/08/16 06:39:15;;;;;;;9.98;4.55;;;16.40;99.90;;;;;;4936600;29;20134;-89
2023/08/16 06:41:42;;;;;;;12.07;4.68;;;16.50;99.90;;;;;;4952706;29;20043;-88
2023/08/16 06:44:09;;;;;;;10.40;4.93;;;16.50;99.90;;;;;;4936394;29;20090;-88
2023/08/16 06:46:36;;;;;;;9.35;5.07;;;16.60;99.90;;;;;;4937063;29;20497;-88
2023/08/16 06:49:03;;;;;;;7.97;4.95;;;16.70;99.90;;;;;;4936722;29;20405;-89
2023/08/16 06:51:30;;;;;;;10.32;4.72;;;16.80;99.90;;;;;;4952645;29;20036;-89
2023/08/16 06:53:56;;;;;;;6.10;4.00;;;16.80;99.90;;;;;;4936392;29;20047;-89
2023/08/16 06:56:23;;;;;;;8.48;4.32;;;16.90;99.90;;;;;;4952386;29;20069;-89
2023/08/16 06:58:51;;;;;;;8.90;3.95;;;17.00;99.90;;;;;;4939989;29;20801;-89
2023/08/16 07:01:17;;;;;;;9.77;4.10;;;17.10;99.90;;;;;;4938599;29;20047;-89
2023/08/16 07:03:44;;;;;;;6.03;3.65;;;17.10;99.90;;;;;;4952318;29;20547;-89
2023/08/16 07:06:11;;;;;;;6.78;2.90;;;17.30;99.90;;;;;;4952324;29;20131;-89
2023/08/16 07:08:38;;;;;;;6.43;2.85;;;17.30;99.90;;;;;;4952577;29;20100;-88
2023/08/16 07:11:05;;;;;;;9.00;3.42;;;17.40;99.90;;;;;;4937015;29;20047;-89
2023/08/16 07:13:31;;;;;;;6.35;3.10;;;17.40;99.90;;;;;;4952533;29;20044;-89
2023/08/16 07:15:58;;;;;;;7.95;2.65;;;17.50;99.90;;;;;;4952499;29;20047;-88
2023/08/16 07:18:25;;;;;;;6.05;2.50;;;17.50;99.90;;;;;;4952345;29;20529;-89
2023/08/16 07:20:52;;;;;;;6.80;2.90;;;17.50;99.90;;;;;;4952313;29;20142;-88
2023/08/16 07:23:18;;;;;;;6.80;2.80;;;17.60;99.90;;;;;;4936519;29;20048;-89
2023/08/16 07:25:53;;;;;;;6.05;3.10;;;17.60;99.90;;;;;;4936737;29;20052;-89
2023/08/16 07:28:20;;;;;;;9.25;2.80;;;17.60;99.90;;;;;;4936407;29;20489;-89
2023/08/16 07:30:46;;;;;;;7.43;2.38;;;17.80;99.90;;;;;;4936848;29;20043;-89
2023/08/16 07:33:13;;;;;;;6.45;2.42;;;18.00;99.90;;;;;;4952073;29;20146;-89
2023/08/16 07:35:40;;;;;;;5.13;2.60;;;18.20;99.90;;;;;;4937079;29;20044;-89
2023/08/16 07:38:11;;;;;;;6.82;2.47;;;18.20;99.90;;;;;;4937137;29;20036;-90
2023/08/16 07:40:38;;;;;;;5.97;2.50;;;18.60;99.90;;;;;;4936423;29;20040;-89
2023/08/16 07:43:05;;;;;;;6.32;2.78;;;18.80;99.90;;;;;;4936630;29;20413;-89
2023/08/16 07:45:31;;;;;;;7.35;2.42;;;18.90;99.90;;;;;;4936206;29;20040;-89
2023/08/16 07:47:58;;;;;;;7.30;2.25;;;19.10;99.90;;;;;;4939697;29;20083;-90
2023/08/16 07:50:25;;;;;;;5.07;1.90;;;19.30;99.90;;;;;;4939814;29;20047;-90
2023/08/16 07:52:52;;;;;;;7.10;2.10;;;19.30;99.90;;;;;;4940005;29;20400;-90
2023/08/16 07:55:18;;;;;;;7.65;2.25;;;19.40;99.90;;;;;;4955222;29;20050;-90
2023/08/16 07:57:49;;;;;;;4.05;1.90;;;19.50;99.90;;;;;;4939784;29;20062;-90
2023/08/16 08:00:17;;;;;;;4.60;1.90;;;19.50;99.90;;;;;;4939654;29;20044;-90
2023/08/16 08:02:44;;;;;;;5.15;2.60;;;19.40;99.90;;;;;;4939912;29;20126;-90
2023/08/16 08:05:11;;;;;;;5.40;2.40;;;19.20;99.90;;;;;;4939535;29;20130;-90
2023/08/16 08:07:38;;;;;;;6.20;2.60;;;19.40;99.90;;;;;;4939599;29;20505;-90
2023/08/16 08:10:08;;;;;;;7.80;2.90;;;19.40;99.90;;;;;;4939871;29;20048;-90
2023/08/16 08:12:34;;;;;;;6.32;2.55;;;19.40;99.90;;;;;;4955155;29;20044;-90
2023/08/16 08:15:02;;;;;;;9.32;3.00;;;19.40;99.90;;;;;;4939551;29;20111;-90
2023/08/16 08:17:28;;;;;;;5.60;3.10;;;19.50;99.90;;;;;;4954865;29;20044;-90
2023/08/16 08:19:55;;;;;;;5.22;3.13;;;19.60;99.90;;;;;;4955043;29;20551;-90
2023/08/16 08:22:22;;;;;;;7.82;3.45;;;19.60;99.90;;;;;;4939428;29;20043;-91
2023/08/16 08:24:49;;;;;;;7.20;3.67;;;19.60;99.90;;;;;;4939034;29;20055;-90
2023/08/16 08:27:15;;;;;;;6.93;2.70;;;19.60;99.90;;;;;;4954996;29;20044;-90
2023/08/16 08:29:42;;;;;;;9.90;3.28;;;19.60;99.90;;;;;;4938908;29;20626;-90
2023/08/16 08:32:09;;;;;;;4.93;2.50;;;19.60;99.90;;;;;;4954651;29;20044;-91
2023/08/16 08:34:38;;;;;;;5.95;2.40;;;19.60;99.90;;;;;;4955049;29;20374;-90
2023/08/16 08:37:05;;;;;;;5.95;2.40;;;19.70;99.90;;;;;;4954823;29;20134;-91
2023/08/16 08:39:33;;;;;;;5.45;2.17;;;19.80;99.90;;;;;;4954618;29;20047;-90
2023/08/16 08:42:01;;;;;;;4.85;2.20;;;20.00;99.90;;;;;;4939300;29;20040;-90
2023/08/16 08:44:29;;;;;;;7.93;2.20;;;20.00;99.90;;;;;;4954411;29;20047;-91
2023/08/16 08:46:56;;;;;;;4.82;2.20;;;20.00;99.90;;;;;;4954958;29;20043;-90
2023/08/16 08:49:24;;;;;;;4.55;2.40;;;20.00;99.90;;;;;;4954388;29;20043;-91
2023/08/16 08:51:51;;;;;;;5.30;1.85;;;20.00;99.90;;;;;;4954921;29;20043;-89
2023/08/16 08:54:18;;;;;;;3.55;2.10;;;19.90;99.90;;;;;;4954908;29;20130;-91
2023/08/16 08:56:47;;;;;;;5.10;1.83;;;20.00;99.90;;;;;;4938428;29;20714;-91
2023/08/16 08:59:13;;;;;;;5.53;1.98;;;20.10;99.90;;;;;;4953434;29;20505;-91
2023/08/16 09:01:42;;;;;;;4.95;1.70;;;20.30;99.90;;;;;;4938267;29;20050;-90
2023/08/16 09:04:10;;;;;;;3.65;1.50;;;20.50;99.90;;;;;;4938270;29;20043;-90
2023/08/16 09:06:41;;;;;;;2.30;1.30;;;20.70;99.90;;;;;;4954289;29;20040;-90
2023/08/16 09:09:08;;;;;;;3.67;1.33;;;21.10;99.90;;;;;;4954383;29;20050;-91
2023/08/16 09:11:35;;;;;;;3.45;1.30;;;21.30;99.90;;;;;;4953891;29;20047;-91
2023/08/16 09:14:03;;;;;;;4.53;1.23;;;21.40;99.90;;;;;;4938553;29;20110;-91
2023/08/16 09:16:30;;;;;;;3.35;1.10;;;21.60;99.90;;;;;;4938546;29;20045;-91
2023/08/16 09:18:57;;;;;;;2.88;1.02;;;21.70;99.90;;;;;;4953962;29;20059;-90
2023/08/16 09:21:28;;;;;;;5.40;1.20;;;21.80;99.90;;;;;;4938406;29;20078;-90
2023/08/16 09:23:59;;;;;;;3.13;1.23;;;21.80;99.90;;;;;;4938232;29;20083;-90
2023/08/16 09:26:44;;;;;;;2.55;1.10;;;21.90;99.90;;;;;;4938293;29;20050;-89
2023/08/16 09:29:11;;;;;;;4.72;1.50;;;22.00;99.90;;;;;;4938149;29;20043;-91
2023/08/16 09:31:39;;;;;;;6.88;1.30;;;22.10;99.90;;;;;;4953779;29;20452;-91
2023/08/16 09:34:06;;;;;;;2.95;1.20;;;22.20;99.90;;;;;;4938058;29;20059;-90
2023/08/16 09:36:36;;;;;;;3.30;1.17;;;22.30;99.90;;;;;;4953424;29;20048;-91
2023/08/16 09:39:08;;;;;;;4.78;1.27;;;22.40;99.90;;;;;;4937926;29;20047;-91
2023/08/16 09:41:38;;;;;;;3.85;1.30;;;22.40;99.90;;;;;;4953614;29;20667;-91
2023/08/16 09:44:09;;;;;;;2.53;1.30;;;22.40;99.90;;;;;;4937940;29;20067;-91
2023/08/16 09:46:39;;;;;;;3.85;1.38;;;22.20;99.90;;;;;;4953657;29;20039;-90
2023/08/16 09:49:10;;;;;;;2.25;1.10;;;22.30;99.90;;;;;;4952993;29;20075;-90
2023/08/16 09:51:40;;;;;;;2.78;1.10;;;22.20;99.90;;;;;;4937399;29;20044;-90
2023/08/16 09:54:12;;;;;;;2.80;1.20;;;22.20;99.90;;;;;;4953335;29;20107;-91
2023/08/16 09:56:40;;;;;;;3.30;1.52;;;22.30;99.90;;;;;;4953333;29;20461;-91
2023/08/16 09:59:08;;;;;;;3.60;1.15;;;22.40;99.90;;;;;;4953056;29;20461;-91
2023/08/16 10:01:35;;;;;;;2.40;1.05;;;22.60;99.90;;;;;;4953212;29;20065;-90
2023/08/16 10:04:03;;;;;;;3.35;1.17;;;22.60;99.90;;;;;;4953748;29;20094;-90
2023/08/16 10:06:38;;;;;;;3.13;1.20;;;22.90;99.90;;;;;;4953834;29;20485;-90
2023/08/16 10:09:06;;;;;;;;;;;23.10;99.90;;;;;;4953504;29;20540;-90
2023/08/16 10:11:33;;;;;;;2.72;1.23;;;23.10;99.90;;;;;;4937180;29;19988;-90
2023/08/16 10:14:08;;;;;;;4.50;1.20;;;23.40;99.90;;;;;;4953532;29;20043;-90
2023/08/16 10:16:36;;;;;;;4.72;1.10;;;23.60;99.90;;;;;;4952685;29;20541;-90
2023/08/16 10:19:06;;;;;;;5.43;1.33;;;23.50;99.90;;;;;;4952857;29;20134;-91
2023/08/16 10:21:37;;;;;;;5.68;1.20;;;23.30;99.90;;;;;;4953089;29;20460;-90
2023/08/16 10:24:09;;;;;;;2.70;1.08;;;23.00;99.90;;;;;;4952916;29;20083;-91
2023/08/16 10:26:38;;;;;;;3.42;1.27;;;23.00;99.90;;;;;;4952776;29;20060;-90
2023/08/16 10:29:09;;;;;;;2.13;0.93;;;22.80;99.90;;;;;;4953262;29;20075;-91
2023/08/16 10:31:41;;;;;;;1.80;0.90;;;22.60;99.90;;;;;;4952454;29;20048;-89
2023/08/16 10:34:11;;;;;;;4.03;1.02;;;22.50;99.90;;;;;;4953191;29;20052;-90
2023/08/16 10:36:38;;;;;;;3.70;1.00;;;22.80;99.90;;;;;;4936776;29;20441;-90
2023/08/16 10:39:07;;;;;;;2.88;0.90;;;22.90;99.90;;;;;;4952727;29;20138;-91
2023/08/16 10:41:43;;;;;;;4.97;1.02;;;22.90;99.90;;;;;;4952712;29;20539;-91
2023/08/16 10:44:20;;;;;;;5.38;1.00;;;23.00;99.90;;;;;;4937051;29;20060;-91
2023/08/16 10:46:48;;;;;;;2.72;1.10;;;23.10;99.90;;;;;;4936506;29;20130;-90
2023/08/16 10:49:15;;;;;;;1.83;0.70;;;23.20;99.90;;;;;;4936773;29;20083;-91
2023/08/16 10:51:52;;;;;;;3.35;1.00;;;23.20;99.90;;;;;;4952487;29;20043;-91
2023/08/16 10:54:32;;;;;;;2.30;0.98;;;23.30;99.90;;;;;;4952760;29;20039;-91
2023/08/16 10:57:04;;;;;;;2.35;0.90;;;23.30;99.90;;;;;;4952377;29;20139;-91
2023/08/16 10:59:38;;;;;;;2.92;1.00;;;23.30;99.90;;;;;;4952641;29;20518;-90
2023/08/16 11:02:10;;;;;;;2.57;1.00;;;23.30;99.90;;;;;;4952730;29;20052;-90
2023/08/16 11:04:38;;;;;;;2.22;0.88;;;23.30;99.90;;;;;;4952706;29;20312;-90
2023/08/16 11:07:09;;;;;;;3.30;0.80;;;23.40;99.90;;;;;;4952266;29;20044;-90
2023/08/16 11:09:36;;;;;;;3.80;1.00;;;23.40;99.90;;;;;;4936863;29;20189;-92
2023/08/16 11:12:16;;;;;;;3.55;0.90;;;23.40;99.90;;;;;;4952296;29;20043;-90
2023/08/16 11:14:52;;;;;;;2.42;0.90;;;23.50;99.90;;;;;;4952386;29;20040;-90
2023/08/16 11:17:34;;;;;;;2.03;0.70;;;23.30;99.90;;;;;;4952844;29;20580;-90
2023/08/16 11:20:09;;;;;;;2.90;0.80;;;23.30;99.90;;;;;;4952097;29;20107;-91
2023/08/16 11:22:36;;;;;;;2.10;0.90;;;23.60;99.90;;;;;;4939594;29;20051;-90
2023/08/16 11:25:03;;;;;;;2.28;1.00;;;23.30;99.90;;;;;;4956029;29;20043;-91
2023/08/16 11:27:30;;;;;;;2.13;1.00;;;23.40;99.90;;;;;;4940349;29;20036;-91
2023/08/16 11:30:00;;;;;;;3.83;0.93;;;23.40;99.90;;;;;;4955894;29;20186;-91
2023/08/16 11:32:35;;;;;;;3.08;1.10;;;23.30;99.90;;;;;;4940751;29;20055;-90
2023/08/16 11:35:11;;;;;;;4.00;0.90;;;23.50;99.90;;;;;;4955697;29;20408;-90
2023/08/16 11:37:42;;;;;;;3.90;1.10;;;23.60;99.90;;;;;;4939792;29;20078;-90
2023/08/16 11:40:09;;;;;;;2.90;1.00;;;23.70;99.90;;;;;;4955503;29;20043;-90
2023/08/16 11:42:40;;;;;;;3.58;1.00;;;23.80;99.90;;;;;;4955939;29;20054;-89
2023/08/16 11:45:26;;;;;;;1.83;1.00;;;23.80;99.90;;;;;;4939867;29;20048;-90
2023/08/16 11:48:04;;;;;;;3.65;0.90;;;23.70;99.90;;;;;;4956359;29;20039;-90
2023/08/16 11:50:34;;;;;;;2.58;0.77;;;23.80;99.90;;;;;;4955615;29;20039;-91
2023/08/16 11:53:05;;;;;;;3.08;0.80;;;23.80;99.90;;;;;;4955764;29;20489;-91
2023/08/16 11:55:33;;;;;;;3.83;1.02;;;23.90;99.90;;;;;;4939881;29;20044;-91
2023/08/16 11:58:10;;;;;;;2.42;1.10;;;23.80;99.90;;;;;;4955290;29;20045;-90
2023/08/16 12:00:38;;;;;;;2.25;0.90;;;23.80;99.90;;;;;;4940222;29;20129;-90
2023/08/16 12:03:06;;;;;;;1.98;0.90;;;23.80;99.90;;;;;;4939823;29;20051;-90
2023/08/16 12:05:38;;;;;;;2.45;0.80;;;23.90;99.90;;;;;;4939406;29;20044;-90
2023/08/16 12:08:08;;;;;;;5.15;0.90;;;23.90;99.90;;;;;;4948048;29;20039;-90
2023/08/16 12:10:39;;;;;;;4.18;0.82;;;24.20;99.90;;;;;;4955683;29;20114;-90
2023/08/16 12:13:13;;;;;;;1.95;0.88;;;24.20;99.90;;;;;;4939255;29;20059;-90
2023/08/16 12:15:46;;;;;;;2.33;0.90;;;24.00;99.90;;;;;;4955108;29;20046;-90
2023/08/16 12:18:20;;;;;;;4.00;1.13;;;23.90;99.90;;;;;;4939752;29;20032;-91
2023/08/16 12:20:50;;;;;;;1.15;0.70;;;24.00;99.90;;;;;;4954961;29;20501;-90
2023/08/16 12:23:17;;;;;;;2.67;0.90;;;24.00;99.90;;;;;;4939543;29;20052;-90
2023/08/16 12:25:44;;;;;;;2.58;1.00;;;23.70;99.90;;;;;;4954826;29;20043;-92
2023/08/16 12:28:11;;;;;;;4.07;0.85;;;23.50;99.90;;;;;;4954955;29;20067;-91
2023/08/16 12:30:41;;;;;;;2.40;1.00;;;23.40;99.90;;;;;;4954965;29;20058;-90
2023/08/16 12:33:16;;;;;;;2.50;0.80;;;23.40;99.90;;;;;;4954662;29;20099;-91
2023/08/16 12:35:47;;;;;;;2.60;0.90;;;23.60;99.90;;;;;;4939655;29;20032;-89
2023/08/16 12:38:22;;;;;;;2.05;0.90;;;23.70;99.90;;;;;;4939568;29;20079;-90
2023/08/16 12:40:49;;;;;;;3.13;1.00;;;23.80;99.90;;;;;;4955082;29;20090;-90
2023/08/16 12:43:18;;;;;;;0.93;0.70;;;23.80;99.90;;;;;;4954984;29;20123;-90
2023/08/16 12:45:47;;;;;;;3.25;1.02;;;23.90;99.90;;;;;;4955090;29;20102;-90
2023/08/16 12:48:14;;;;;;;3.47;0.90;;;24.00;99.90;;;;;;4939168;29;20132;-90
2023/08/16 12:50:41;;;;;;;2.92;0.90;;;24.00;99.90;;;;;;4939676;29;20136;-89